»·PEaware :: N75QA L52-L88

N75QA :: L52-L88

FLIGHT INFORMATION

Flight Status: Arrived
Operator: Privately registered:
United States
More flights under this callsign
Pilot: Jackson S. (24351)
Aircraft: CESSNA 172 SKYHAWK
(C172)
More flights by this aircraft type
Origin: L52 Oceano Co
United States
Destination: L88 New Cuyama
United States
More flights between these airports :: More routes between these airports
Route: DCT
File this flight plan on PilotEdge
Remarks:
Altitude:
(Current/Filed)
4,000ft
Speed:
(Current/Filed)
150kts
Departed: 02-May-19 05:26 PM
Arrived: 02-May-19 06:08 PM
Distance/Time
Traveled:
0nm/0:42
Distance/Time
To Go:
Arrived

Flight Plot

Page will automatically refresh every two minutes.


Map Options




Map Legend


Flown Route
Filed Route
Departure Airport
Arrival Airport
Navaid (VOR, NDB)
Fix

Horizontal Profiles

Position Reports

Time Latitude Longitude Heading Altitude Ground
Speed
02-May-19 17:09 35.103340 -120.624451 32 18ft 0kts
02-May-19 17:10 35.103340 -120.624451 32 18ft 0kts
02-May-19 17:11 35.103340 -120.624451 32 18ft 0kts
02-May-19 17:12 35.103340 -120.624451 32 18ft 0kts
02-May-19 17:13 35.103340 -120.624451 32 18ft 0kts
02-May-19 17:14 35.103340 -120.624451 32 18ft 0kts
02-May-19 17:15 35.103340 -120.624451 32 18ft 0kts
02-May-19 17:16 35.103340 -120.624451 32 18ft 0kts
02-May-19 17:17 35.103340 -120.624451 32 18ft 0kts
02-May-19 17:18 35.103342 -120.624450 31 18ft 0kts
02-May-19 17:19 35.103348 -120.624445 31 18ft 0kts
02-May-19 17:20 35.103348 -120.624445 31 18ft 0kts
02-May-19 17:21 35.102819 -120.623875 210 18ft 0kts
02-May-19 17:22 35.102034 -120.624260 127 18ft 9kts
02-May-19 17:23 35.100283 -120.620998 121 18ft 13kts
02-May-19 17:24 35.099543 -120.619506 80 18ft 0kts
02-May-19 17:25 35.104451 -120.628089 303 243ft 62kts
02-May-19 17:27 35.090315 -120.625357 131 795ft 114kts
02-May-19 17:28 35.081256 -120.596846 359 975ft 83kts
02-May-19 17:29 35.095674 -120.611591 310 276ft 44kts
02-May-19 17:30 35.101497 -120.622272 313 18ft 7kts
02-May-19 17:31 35.102100 -120.622258 213 18ft 0kts
02-May-19 17:32 35.102100 -120.622258 213 18ft 0kts
02-May-19 17:33 35.102100 -120.622258 213 18ft 0kts
02-May-19 17:34 35.101868 -120.622288 203 18ft 6kts
02-May-19 17:35 35.099700 -120.619903 121 18ft 13kts
02-May-19 17:36 35.099551 -120.619526 80 18ft 0kts
02-May-19 17:37 35.100060 -120.619589 301 18ft 6kts
02-May-19 17:38 35.107532 -120.634113 314 499ft 66kts
02-May-19 17:39 35.093636 -120.619457 118 1054ft 109kts
02-May-19 17:40 35.082738 -120.591792 52 1774ft 71kts
02-May-19 17:41 35.098945 -120.576207 48 2190ft 86kts
02-May-19 17:42 35.093585 -120.540585 85 2481ft 105kts
02-May-19 17:43 35.101312 -120.507944 66 2723ft 110kts
02-May-19 17:44 35.110889 -120.475501 53 3227ft 93kts
02-May-19 17:45 35.121693 -120.447213 50 3831ft 88kts
02-May-19 17:46 35.129328 -120.413882 82 4029ft 113kts
02-May-19 17:47 35.126445 -120.376335 93 4408ft 102kts
02-May-19 17:48 35.124311 -120.340936 80 4822ft 100kts
02-May-19 17:49 35.127284 -120.304520 90 4864ft 119kts
02-May-19 17:50 35.124634 -120.263526 90 4861ft 120kts
02-May-19 17:50 35.122672 -120.229068 90 4863ft 121kts
02-May-19 17:52 35.119968 -120.180663 88 4857ft 122kts
02-May-19 17:52 35.118144 -120.146178 90 4857ft 121kts
02-May-19 17:54 35.109896 -120.096689 114 4424ft 139kts
02-May-19 17:55 35.093512 -120.052607 113 3706ft 138kts
02-May-19 17:55 35.079768 -120.018548 124 3506ft 132kts
02-May-19 17:57 35.058130 -119.976348 119 3583ft 118kts
02-May-19 17:57 35.046374 -119.944152 118 3516ft 126kts
02-May-19 17:58 35.030017 -119.907255 115 3612ft 120kts
02-May-19 17:59 35.017183 -119.868649 112 3679ft 121kts
02-May-19 18:00 35.008788 -119.828298 103 3687ft 127kts
02-May-19 18:02 34.998941 -119.778438 110 3509ft 129kts
02-May-19 18:02 34.986583 -119.745447 115 3431ft 125kts
02-May-19 18:03 34.960893 -119.716816 152 3156ft 121kts
02-May-19 18:04 34.935598 -119.688721 133 2959ft 114kts
02-May-19 18:05 34.924256 -119.661454 51 3098ft 85kts
02-May-19 18:06 34.935983 -119.675843 292 2345ft 51kts
02-May-19 18:07 34.940738 -119.687504 291 2207ft 30kts
02-May-19 18:08 34.942685 -119.691158 342 2207ft 3kts
02-May-19 18:09 34.942935 -119.690753 193 2207ft 0kts
02-May-19 18:10 34.942935 -119.690753 194 2207ft 0kts
02-May-19 18:11 34.942935 -119.690753 194 2207ft 0kts
02-May-19 18:12 34.942935 -119.690753 194 2207ft 0kts
02-May-19 18:13 34.942935 -119.690753 194 2207ft 0kts
02-May-19 18:14 34.942935 -119.690753 194 2207ft 0kts
02-May-19 18:15 34.942935 -119.690753 194 2207ft 0kts
02-May-19 18:16 35.103318 -120.624469 31 19ft 0kts
02-May-19 18:17 35.103318 -120.624469 31 19ft 0kts

Navigation Log

Ident Type
Flight plan parsing failed, navigation log unavailable